sensor_id;sensor_type;location;lat;lon;timestamp;pressure;altitude;pressure_sealevel;temperature;humidity
5595;BME280;1003;48.002;7.788;2022-07-23T00:00:21;98814.47;;;23.02;99.29
5595;BME280;1003;48.002;7.788;2022-07-23T00:02:49;98823.72;;;22.65;100.00
5595;BME280;1003;48.002;7.788;2022-07-23T00:05:16;98826.91;;;22.56;100.00
5595;BME280;1003;48.002;7.788;2022-07-23T00:07:43;98824.13;;;22.59;100.00
5595;BME280;1003;48.002;7.788;2022-07-23T00:10:11;98825.88;;;22.59;100.00
5595;BME280;1003;48.002;7.788;2022-07-23T00:12:39;98831.28;;;22.54;100.00
5595;BME280;1003;48.002;7.788;2022-07-23T00:15:08;98831.09;;;22.44;100.00
5595;BME280;1003;48.002;7.788;2022-07-23T00:17:35;98844.25;;;22.38;100.00
5595;BME280;1003;48.002;7.788;2022-07-23T00:20:05;98834.25;;;22.35;100.00
5595;BME280;1003;48.002;7.788;2022-07-23T00:22:33;98846.22;;;22.35;100.00
5595;BME280;1003;48.002;7.788;2022-07-23T00:25:01;98840.97;;;22.23;100.00
5595;BME280;1003;48.002;7.788;2022-07-23T00:27:28;98822.41;;;22.20;100.00
5595;BME280;1003;48.002;7.788;2022-07-23T00:29:55;98815.94;;;22.14;100.00
5595;BME280;1003;48.002;7.788;2022-07-23T00:32:22;98812.91;;;22.08;100.00
5595;BME280;1003;48.002;7.788;2022-07-23T00:34:49;98811.84;;;21.97;100.00
5595;BME280;1003;48.002;7.788;2022-07-23T00:37:17;98812.78;;;21.96;100.00
5595;BME280;1003;48.002;7.788;2022-07-23T00:39:44;98801.50;;;21.99;100.00
5595;BME280;1003;48.002;7.788;2022-07-23T00:42:12;98785.59;;;22.08;100.00
5595;BME280;1003;48.002;7.788;2022-07-23T00:44:39;98761.38;;;22.14;100.00
5595;BME280;1003;48.002;7.788;2022-07-23T00:47:06;98753.41;;;22.04;100.00
5595;BME280;1003;48.002;7.788;2022-07-23T00:49:33;98756.56;;;21.95;100.00
5595;BME280;1003;48.002;7.788;2022-07-23T00:52:02;98753.16;;;21.82;100.00
5595;BME280;1003;48.002;7.788;2022-07-23T00:54:31;98751.97;;;21.73;100.00
5595;BME280;1003;48.002;7.788;2022-07-23T00:56:58;98756.47;;;21.69;100.00
5595;BME280;1003;48.002;7.788;2022-07-23T00:59:25;98760.03;;;21.67;100.00
5595;BME280;1003;48.002;7.788;2022-07-23T01:01:52;98777.22;;;21.65;100.00
5595;BME280;1003;48.002;7.788;2022-07-23T01:04:20;98781.59;;;21.63;100.00
5595;BME280;1003;48.002;7.788;2022-07-23T01:06:47;98764.63;;;21.62;100.00
5595;BME280;1003;48.002;7.788;2022-07-23T01:09:14;98750.28;;;21.59;100.00
5595;BME280;1003;48.002;7.788;2022-07-23T01:11:43;98747.53;;;21.62;100.00
5595;BME280;1003;48.002;7.788;2022-07-23T01:14:14;98738.22;;;21.61;100.00
5595;BME280;1003;48.002;7.788;2022-07-23T01:16:43;98733.09;;;21.61;100.00
5595;BME280;1003;48.002;7.788;2022-07-23T01:19:11;98727.81;;;21.64;100.00
5595;BME280;1003;48.002;7.788;2022-07-23T01:21:40;98716.41;;;21.56;100.00
5595;BME280;1003;48.002;7.788;2022-07-23T01:24:10;98719.53;;;21.46;100.00
5595;BME280;1003;48.002;7.788;2022-07-23T01:26:41;98730.44;;;21.21;100.00
5595;BME280;1003;48.002;7.788;2022-07-23T01:29:08;98741.22;;;20.84;100.00
5595;BME280;1003;48.002;7.788;2022-07-23T01:31:36;98754.69;;;20.71;100.00
5595;BME280;1003;48.002;7.788;2022-07-23T01:34:03;98736.44;;;20.63;100.00
5595;BME280;1003;48.002;7.788;2022-07-23T01:36:32;98732.25;;;20.62;100.00
5595;BME280;1003;48.002;7.788;2022-07-23T01:39:00;98701.97;;;20.56;100.00
5595;BME280;1003;48.002;7.788;2022-07-23T01:41:29;98687.53;;;20.55;100.00
5595;BME280;1003;48.002;7.788;2022-07-23T01:43:56;98692.94;;;20.51;100.00
5595;BME280;1003;48.002;7.788;2022-07-23T01:46:23;98696.81;;;20.42;100.00
5595;BME280;1003;48.002;7.788;2022-07-23T01:48:50;98710.66;;;20.38;100.00
5595;BME280;1003;48.002;7.788;2022-07-23T01:51:17;98719.75;;;20.28;100.00
5595;BME280;1003;48.002;7.788;2022-07-23T01:53:45;98722.66;;;20.22;100.00
5595;BME280;1003;48.002;7.788;2022-07-23T01:56:12;98737.50;;;20.15;100.00
5595;BME280;1003;48.002;7.788;2022-07-23T01:58:42;98743.88;;;20.22;100.00
5595;BME280;1003;48.002;7.788;2022-07-23T02:01:09;98748.53;;;20.15;100.00
5595;BME280;1003;48.002;7.788;2022-07-23T02:03:36;98761.78;;;20.06;100.00
5595;BME280;1003;48.002;7.788;2022-07-23T02:06:03;98766.25;;;20.03;100.00
5595;BME280;1003;48.002;7.788;2022-07-23T02:08:30;98770.66;;;20.15;100.00
5595;BME280;1003;48.002;7.788;2022-07-23T02:10:57;98783.75;;;20.25;100.00
5595;BME280;1003;48.002;7.788;2022-07-23T02:13:24;98796.44;;;20.10;100.00
5595;BME280;1003;48.002;7.788;2022-07-23T02:15:53;98784.59;;;20.09;100.00
5595;BME280;1003;48.002;7.788;2022-07-23T02:18:20;98780.09;;;19.99;100.00
5595;BME280;1003;48.002;7.788;2022-07-23T02:20:47;98785.69;;;19.89;100.00
5595;BME280;1003;48.002;7.788;2022-07-23T02:23:14;98777.38;;;19.86;100.00
5595;BME280;1003;48.002;7.788;2022-07-23T02:25:41;98782.41;;;19.87;100.00
5595;BME280;1003;48.002;7.788;2022-07-23T02:28:08;98792.03;;;19.82;100.00
5595;BME280;1003;48.002;7.788;2022-07-23T02:30:35;98802.97;;;19.69;100.00
5595;BME280;1003;48.002;7.788;2022-07-23T02:33:04;98820.31;;;19.62;100.00
5595;BME280;1003;48.002;7.788;2022-07-23T02:35:32;98802.69;;;19.57;100.00
5595;BME280;1003;48.002;7.788;2022-07-23T02:37:59;98797.81;;;19.53;100.00
5595;BME280;1003;48.002;7.788;2022-07-23T02:40:26;98786.75;;;19.54;100.00
5595;BME280;1003;48.002;7.788;2022-07-23T02:42:53;98798.13;;;19.47;100.00
5595;BME280;1003;48.002;7.788;2022-07-23T02:45:20;98797.22;;;19.48;100.00
5595;BME280;1003;48.002;7.788;2022-07-23T02:47:47;98804.16;;;19.46;100.00
5595;BME280;1003;48.002;7.788;2022-07-23T02:50:15;98793.81;;;19.49;100.00
5595;BME280;1003;48.002;7.788;2022-07-23T02:52:42;98803.66;;;19.55;100.00
5595;BME280;1003;48.002;7.788;2022-07-23T02:55:09;98795.53;;;19.64;100.00
5595;BME280;1003;48.002;7.788;2022-07-23T02:57:37;98789.03;;;19.58;100.00
5595;BME280;1003;48.002;7.788;2022-07-23T03:00:06;98788.75;;;19.64;100.00
5595;BME280;1003;48.002;7.788;2022-07-23T03:02:34;98792.34;;;19.60;100.00
5595;BME280;1003;48.002;7.788;2022-07-23T03:05:01;98801.16;;;19.71;100.00
5595;BME280;1003;48.002;7.788;2022-07-23T03:07:29;98808.28;;;19.64;100.00
5595;BME280;1003;48.002;7.788;2022-07-23T03:09:56;98810.78;;;19.65;100.00
5595;BME280;1003;48.002;7.788;2022-07-23T03:12:23;98811.59;;;19.66;100.00
5595;BME280;1003;48.002;7.788;2022-07-23T03:14:51;98814.06;;;19.67;100.00
5595;BME280;1003;48.002;7.788;2022-07-23T03:17:18;98816.72;;;19.66;100.00
5595;BME280;1003;48.002;7.788;2022-07-23T03:19:45;98827.00;;;19.64;100.00
5595;BME280;1003;48.002;7.788;2022-07-23T03:22:12;98826.91;;;19.66;100.00
5595;BME280;1003;48.002;7.788;2022-07-23T03:24:40;98828.72;;;19.80;100.00
5595;BME280;1003;48.002;7.788;2022-07-23T03:27:26;98828.41;;;19.86;100.00
5595;BME280;1003;48.002;7.788;2022-07-23T03:29:54;98842.78;;;19.71;100.00
5595;BME280;1003;48.002;7.788;2022-07-23T03:32:23;98850.75;;;19.65;100.00
5595;BME280;1003;48.002;7.788;2022-07-23T03:34:51;98864.03;;;19.54;100.00
5595;BME280;1003;48.002;7.788;2022-07-23T03:37:20;98869.28;;;19.51;100.00
5595;BME280;1003;48.002;7.788;2022-07-23T03:39:49;98870.28;;;19.49;100.00
5595;BME280;1003;48.002;7.788;2022-07-23T03:42:16;98872.06;;;19.47;100.00
5595;BME280;1003;48.002;7.788;2022-07-23T03:44:43;98863.19;;;19.38;100.00
5595;BME280;1003;48.002;7.788;2022-07-23T03:47:10;98875.38;;;19.31;100.00
5595;BME280;1003;48.002;7.788;2022-07-23T03:49:37;98876.78;;;19.21;100.00
5595;BME280;1003;48.002;7.788;2022-07-23T03:52:05;98868.59;;;19.14;100.00
5595;BME280;1003;48.002;7.788;2022-07-23T03:54:32;98846.50;;;19.15;100.00
5595;BME280;1003;48.002;7.788;2022-07-23T03:57:00;98840.13;;;19.24;100.00
5595;BME280;1003;48.002;7.788;2022-07-23T03:59:27;98839.28;;;19.23;100.00
5595;BME280;1003;48.002;7.788;2022-07-23T04:01:54;98838.84;;;19.15;100.00
5595;BME280;1003;48.002;7.788;2022-07-23T04:04:21;98835.78;;;19.08;100.00
5595;BME280;1003;48.002;7.788;2022-07-23T04:06:48;98833.41;;;19.05;100.00
5595;BME280;1003;48.002;7.788;2022-07-23T04:09:16;98842.94;;;19.02;100.00
5595;BME280;1003;48.002;7.788;2022-07-23T04:11:43;98839.66;;;19.00;100.00
5595;BME280;1003;48.002;7.788;2022-07-23T04:14:11;98836.19;;;19.01;100.00
5595;BME280;1003;48.002;7.788;2022-07-23T04:16:38;98842.09;;;19.01;100.00
5595;BME280;1003;48.002;7.788;2022-07-23T04:19:05;98840.97;;;19.07;100.00
5595;BME280;1003;48.002;7.788;2022-07-23T04:21:32;98836.47;;;19.12;100.00
5595;BME280;1003;48.002;7.788;2022-07-23T04:23:59;98839.59;;;19.17;100.00
5595;BME280;1003;48.002;7.788;2022-07-23T04:26:26;98846.75;;;19.26;100.00
5595;BME280;1003;48.002;7.788;2022-07-23T04:28:53;98844.84;;;19.47;100.00
5595;BME280;1003;48.002;7.788;2022-07-23T04:31:22;98843.34;;;19.60;100.00
5595;BME280;1003;48.002;7.788;2022-07-23T04:33:49;98846.63;;;19.62;100.00
5595;BME280;1003;48.002;7.788;2022-07-23T04:36:16;98858.47;;;19.63;100.00
5595;BME280;1003;48.002;7.788;2022-07-23T04:38:43;98864.34;;;19.65;100.00
5595;BME280;1003;48.002;7.788;2022-07-23T04:41:10;98862.44;;;19.69;100.00
5595;BME280;1003;48.002;7.788;2022-07-23T04:43:37;98865.81;;;19.70;100.00
5595;BME280;1003;48.002;7.788;2022-07-23T04:46:05;98864.81;;;19.72;100.00
5595;BME280;1003;48.002;7.788;2022-07-23T04:48:33;98861.28;;;19.75;100.00
5595;BME280;1003;48.002;7.788;2022-07-23T04:51:00;98854.22;;;19.80;100.00
5595;BME280;1003;48.002;7.788;2022-07-23T04:53:27;98857.84;;;19.91;100.00
5595;BME280;1003;48.002;7.788;2022-07-23T04:55:55;98868.69;;;20.11;100.00
5595;BME280;1003;48.002;7.788;2022-07-23T04:58:22;98872.16;;;20.26;100.00
5595;BME280;1003;48.002;7.788;2022-07-23T05:00:49;98869.69;;;20.40;100.00
5595;BME280;1003;48.002;7.788;2022-07-23T05:03:17;98876.78;;;20.51;100.00
5595;BME280;1003;48.002;7.788;2022-07-23T05:05:45;98885.13;;;20.68;100.00
5595;BME280;1003;48.002;7.788;2022-07-23T05:08:12;98887.53;;;20.86;100.00
5595;BME280;1003;48.002;7.788;2022-07-23T05:10:39;98879.47;;;21.08;100.00
5595;BME280;1003;48.002;7.788;2022-07-23T05:13:06;98877.91;;;21.64;100.00
5595;BME280;1003;48.002;7.788;2022-07-23T05:15:34;98884.31;;;22.93;100.00
5595;BME280;1003;48.002;7.788;2022-07-23T05:18:01;98899.72;;;24.06;100.00
5595;BME280;1003;48.002;7.788;2022-07-23T05:20:28;98895.13;;;24.59;100.00
5595;BME280;1003;48.002;7.788;2022-07-23T05:22:56;98894.38;;;24.33;100.00
5595;BME280;1003;48.002;7.788;2022-07-23T05:25:24;98905.28;;;24.00;100.00
5595;BME280;1003;48.002;7.788;2022-07-23T05:27:51;98899.31;;;23.63;100.00
5595;BME280;1003;48.002;7.788;2022-07-23T05:30:18;98903.72;;;23.74;100.00
5595;BME280;1003;48.002;7.788;2022-07-23T05:32:46;98910.19;;;24.16;100.00
5595;BME280;1003;48.002;7.788;2022-07-23T05:35:13;98912.38;;;24.33;100.00
5595;BME280;1003;48.002;7.788;2022-07-23T05:37:40;98907.94;;;23.99;100.00
5595;BME280;1003;48.002;7.788;2022-07-23T05:40:11;98910.97;;;23.67;100.00
5595;BME280;1003;48.002;7.788;2022-07-23T05:42:40;98914.88;;;23.47;100.00
5595;BME280;1003;48.002;7.788;2022-07-23T05:45:09;98914.34;;;23.29;100.00
5595;BME280;1003;48.002;7.788;2022-07-23T05:47:44;98927.06;;;23.18;100.00
5595;BME280;1003;48.002;7.788;2022-07-23T05:50:13;98926.19;;;23.19;100.00
5595;BME280;1003;48.002;7.788;2022-07-23T05:52:41;98930.69;;;23.41;100.00
5595;BME280;1003;48.002;7.788;2022-07-23T05:55:11;98932.72;;;23.87;100.00
5595;BME280;1003;48.002;7.788;2022-07-23T05:57:39;98930.09;;;24.73;100.00
5595;BME280;1003;48.002;7.788;2022-07-23T06:00:09;98932.88;;;25.52;100.00
5595;BME280;1003;48.002;7.788;2022-07-23T06:02:38;98940.72;;;25.61;100.00
5595;BME280;1003;48.002;7.788;2022-07-23T06:05:07;98944.94;;;25.62;100.00
5595;BME280;1003;48.002;7.788;2022-07-23T06:07:35;98953.13;;;25.68;100.00
5595;BME280;1003;48.002;7.788;2022-07-23T06:10:03;98967.03;;;25.54;100.00
5595;BME280;1003;48.002;7.788;2022-07-23T06:12:32;98974.63;;;25.55;100.00
5595;BME280;1003;48.002;7.788;2022-07-23T06:14:59;98979.78;;;25.66;100.00
5595;BME280;1003;48.002;7.788;2022-07-23T06:17:27;98968.88;;;26.30;100.00
5595;BME280;1003;48.002;7.788;2022-07-23T06:19:54;98973.59;;;27.01;100.00
5595;BME280;1003;48.002;7.788;2022-07-23T06:22:22;98968.13;;;26.94;100.00
5595;BME280;1003;48.002;7.788;2022-07-23T06:24:50;98972.38;;;26.84;100.00
5595;BME280;1003;48.002;7.788;2022-07-23T06:27:17;98962.34;;;27.02;100.00
5595;BME280;1003;48.002;7.788;2022-07-23T06:29:46;98969.72;;;27.27;100.00
5595;BME280;1003;48.002;7.788;2022-07-23T06:32:13;98965.38;;;27.28;100.00
5595;BME280;1003;48.002;7.788;2022-07-23T06:34:40;98976.47;;;27.18;100.00
5595;BME280;1003;48.002;7.788;2022-07-23T06:37:07;98984.44;;;27.78;99.11
5595;BME280;1003;48.002;7.788;2022-07-23T06:39:34;98979.00;;;28.21;89.48
5595;BME280;1003;48.002;7.788;2022-07-23T06:42:01;98979.63;;;28.93;86.18
5595;BME280;1003;48.002;7.788;2022-07-23T06:44:28;98982.78;;;29.16;88.72
5595;BME280;1003;48.002;7.788;2022-07-23T06:46:57;98986.53;;;29.60;77.98
5595;BME280;1003;48.002;7.788;2022-07-23T06:49:24;98986.63;;;30.33;68.72
5595;BME280;1003;48.002;7.788;2022-07-23T06:51:51;98999.25;;;30.64;76.74
5595;BME280;1003;48.002;7.788;2022-07-23T06:54:18;99004.88;;;30.59;75.62
5595;BME280;1003;48.002;7.788;2022-07-23T06:56:45;99004.75;;;30.33;75.02
5595;BME280;1003;48.002;7.788;2022-07-23T06:59:12;98999.44;;;30.35;76.16
5595;BME280;1003;48.002;7.788;2022-07-23T07:01:39;98995.13;;;29.98;76.49
5595;BME280;1003;48.002;7.788;2022-07-23T07:04:08;98997.25;;;30.12;77.17
5595;BME280;1003;48.002;7.788;2022-07-23T07:06:35;99002.47;;;29.65;73.62
5595;BME280;1003;48.002;7.788;2022-07-23T07:09:02;99000.34;;;29.22;76.83
5595;BME280;1003;48.002;7.788;2022-07-23T07:11:29;99001.16;;;28.74;83.33
5595;BME280;1003;48.002;7.788;2022-07-23T07:13:56;99001.19;;;28.24;83.29
5595;BME280;1003;48.002;7.788;2022-07-23T07:16:23;99002.09;;;27.73;87.53
5595;BME280;1003;48.002;7.788;2022-07-23T07:18:50;99018.53;;;28.33;89.21
5595;BME280;1003;48.002;7.788;2022-07-23T07:21:19;99010.09;;;28.50;90.28
5595;BME280;1003;48.002;7.788;2022-07-23T07:23:46;99016.28;;;28.69;91.10
5595;BME280;1003;48.002;7.788;2022-07-23T07:26:13;99021.66;;;28.46;85.49
5595;BME280;1003;48.002;7.788;2022-07-23T07:28:40;99023.84;;;28.51;85.12
5595;BME280;1003;48.002;7.788;2022-07-23T07:31:07;99038.16;;;28.15;84.70
5595;BME280;1003;48.002;7.788;2022-07-23T07:33:34;99045.03;;;27.95;86.05
5595;BME280;1003;48.002;7.788;2022-07-23T07:36:02;99045.41;;;27.90;91.49
5595;BME280;1003;48.002;7.788;2022-07-23T07:38:31;99038.25;;;28.34;84.88
5595;BME280;1003;48.002;7.788;2022-07-23T07:40:58;99039.72;;;29.16;79.71
5595;BME280;1003;48.002;7.788;2022-07-23T07:43:25;99039.00;;;29.62;68.22
5595;BME280;1003;48.002;7.788;2022-07-23T07:45:53;99048.75;;;29.88;66.80
5595;BME280;1003;48.002;7.788;2022-07-23T07:48:20;99050.06;;;29.45;69.98
5595;BME280;1003;48.002;7.788;2022-07-23T07:50:47;99054.44;;;29.44;69.61
5595;BME280;1003;48.002;7.788;2022-07-23T07:53:14;99050.06;;;29.25;65.49
5595;BME280;1003;48.002;7.788;2022-07-23T07:55:42;99042.94;;;29.76;74.85
5595;BME280;1003;48.002;7.788;2022-07-23T07:58:09;99050.97;;;30.20;67.07
5595;BME280;1003;48.002;7.788;2022-07-23T08:00:37;99043.44;;;30.26;64.37
5595;BME280;1003;48.002;7.788;2022-07-23T08:03:04;99041.81;;;29.88;66.47
5595;BME280;1003;48.002;7.788;2022-07-23T08:05:32;99043.78;;;29.57;72.55
5595;BME280;1003;48.002;7.788;2022-07-23T08:07:59;99047.59;;;29.43;77.68
5595;BME280;1003;48.002;7.788;2022-07-23T08:10:28;99040.78;;;29.71;77.98
5595;BME280;1003;48.002;7.788;2022-07-23T08:12:59;99038.91;;;30.28;68.09
5595;BME280;1003;48.002;7.788;2022-07-23T08:15:28;99037.25;;;30.55;60.62
5595;BME280;1003;48.002;7.788;2022-07-23T08:17:57;99035.09;;;30.50;62.07
5595;BME280;1003;48.002;7.788;2022-07-23T08:20:25;99034.16;;;30.51;62.64
5595;BME280;1003;48.002;7.788;2022-07-23T08:22:57;99034.59;;;30.47;61.11
5595;BME280;1003;48.002;7.788;2022-07-23T08:25:26;99036.13;;;30.85;64.26
5595;BME280;1003;48.002;7.788;2022-07-23T08:27:55;99033.66;;;31.63;58.12
5595;BME280;1003;48.002;7.788;2022-07-23T08:30:24;99046.88;;;31.08;55.36
5595;BME280;1003;48.002;7.788;2022-07-23T08:32:55;99045.31;;;30.79;55.16
5595;BME280;1003;48.002;7.788;2022-07-23T08:35:26;99050.66;;;30.50;57.00
5595;BME280;1003;48.002;7.788;2022-07-23T08:37:54;99053.41;;;30.49;57.93
5595;BME280;1003;48.002;7.788;2022-07-23T08:40:22;99058.34;;;30.24;56.83
5595;BME280;1003;48.002;7.788;2022-07-23T08:42:50;99057.38;;;29.78;63.04
5595;BME280;1003;48.002;7.788;2022-07-23T08:45:21;99065.59;;;29.64;61.48
5595;BME280;1003;48.002;7.788;2022-07-23T08:47:53;99061.78;;;29.20;60.99
5595;BME280;1003;48.002;7.788;2022-07-23T08:50:21;99055.25;;;29.16;69.22
5595;BME280;1003;48.002;7.788;2022-07-23T08:52:50;99053.88;;;29.21;65.39
5595;BME280;1003;48.002;7.788;2022-07-23T08:55:19;99052.25;;;29.40;65.51
5595;BME280;1003;48.002;7.788;2022-07-23T08:57:49;99054.53;;;29.52;63.35
5595;BME280;1003;48.002;7.788;2022-07-23T09:00:18;99051.06;;;29.81;61.50
5595;BME280;1003;48.002;7.788;2022-07-23T09:02:47;99055.78;;;29.58;60.18
5595;BME280;1003;48.002;7.788;2022-07-23T09:05:16;99054.13;;;29.47;60.66
5595;BME280;1003;48.002;7.788;2022-07-23T09:08:11;99050.41;;;29.79;60.59
5595;BME280;1003;48.002;7.788;2022-07-23T09:10:52;99051.00;;;30.10;60.28
5595;BME280;1003;48.002;7.788;2022-07-23T09:13:37;99055.63;;;30.44;56.45
5595;BME280;1003;48.002;7.788;2022-07-23T09:16:08;99051.94;;;30.46;54.00
5595;BME280;1003;48.002;7.788;2022-07-23T09:18:42;99061.25;;;30.39;56.18
5595;BME280;1003;48.002;7.788;2022-07-23T09:21:26;99061.25;;;30.12;56.11
5595;BME280;1003;48.002;7.788;2022-07-23T09:23:57;99060.00;;;30.43;55.73
5595;BME280;1003;48.002;7.788;2022-07-23T09:26:37;99051.63;;;30.95;54.45
5595;BME280;1003;48.002;7.788;2022-07-23T09:29:08;99051.91;;;31.09;50.57
5595;BME280;1003;48.002;7.788;2022-07-23T09:31:49;99046.72;;;31.53;50.26
5595;BME280;1003;48.002;7.788;2022-07-23T09:34:20;99043.69;;;31.84;47.99
5595;BME280;1003;48.002;7.788;2022-07-23T09:36:51;99045.66;;;31.64;47.08
5595;BME280;1003;48.002;7.788;2022-07-23T09:39:27;99045.53;;;31.40;49.33
5595;BME280;1003;48.002;7.788;2022-07-23T09:41:57;99043.38;;;31.17;47.34
5595;BME280;1003;48.002;7.788;2022-07-23T09:44:24;99043.63;;;31.06;47.30
5595;BME280;1003;48.002;7.788;2022-07-23T09:46:59;99050.38;;;30.53;51.71
5595;BME280;1003;48.002;7.788;2022-07-23T09:49:27;99051.97;;;30.37;49.03
5595;BME280;1003;48.002;7.788;2022-07-23T09:51:59;99053.00;;;30.71;50.07
5595;BME280;1003;48.002;7.788;2022-07-23T09:54:31;99056.97;;;30.93;49.14
5595;BME280;1003;48.002;7.788;2022-07-23T09:57:04;99061.13;;;31.22;45.29
5595;BME280;1003;48.002;7.788;2022-07-23T09:59:35;99063.94;;;30.75;46.28
5595;BME280;1003;48.002;7.788;2022-07-23T10:02:04;99065.84;;;30.18;46.80
5595;BME280;1003;48.002;7.788;2022-07-23T10:04:32;99062.78;;;30.32;47.49
5595;BME280;1003;48.002;7.788;2022-07-23T10:07:04;99068.16;;;30.21;46.32
5595;BME280;1003;48.002;7.788;2022-07-23T10:09:35;99067.28;;;30.57;45.23
5595;BME280;1003;48.002;7.788;2022-07-23T10:12:10;99069.50;;;30.52;47.80
5595;BME280;1003;48.002;7.788;2022-07-23T10:14:48;99067.50;;;30.74;44.51
5595;BME280;1003;48.002;7.788;2022-07-23T10:17:15;99066.81;;;30.72;43.43
5595;BME280;1003;48.002;7.788;2022-07-23T10:19:43;99075.97;;;31.12;44.40
5595;BME280;1003;48.002;7.788;2022-07-23T10:22:17;99077.09;;;31.53;43.04
5595;BME280;1003;48.002;7.788;2022-07-23T10:25:08;99066.34;;;31.74;43.70
5595;BME280;1003;48.002;7.788;2022-07-23T10:28:12;99064.13;;;31.79;45.89
5595;BME280;1003;48.002;7.788;2022-07-23T10:31:02;99063.97;;;31.80;42.72
5595;BME280;1003;48.002;7.788;2022-07-23T10:33:48;99064.38;;;31.68;42.65
5595;BME280;1003;48.002;7.788;2022-07-23T10:36:30;99060.28;;;31.83;43.08
5595;BME280;1003;48.002;7.788;2022-07-23T10:39:14;99061.41;;;31.62;44.13
5595;BME280;1003;48.002;7.788;2022-07-23T10:41:42;99066.94;;;31.59;43.17
5595;BME280;1003;48.002;7.788;2022-07-23T10:44:12;99063.47;;;31.51;43.22
5595;BME280;1003;48.002;7.788;2022-07-23T10:46:56;99069.63;;;31.50;43.55
5595;BME280;1003;48.002;7.788;2022-07-23T10:49:41;99065.63;;;31.63;45.02
5595;BME280;1003;48.002;7.788;2022-07-23T10:52:23;99070.38;;;31.42;43.23
5595;BME280;1003;48.002;7.788;2022-07-23T10:54:55;99072.78;;;31.61;44.17
5595;BME280;1003;48.002;7.788;2022-07-23T10:57:24;99072.22;;;31.76;42.55
5595;BME280;1003;48.002;7.788;2022-07-23T11:00:14;99070.97;;;31.36;43.48
5595;BME280;1003;48.002;7.788;2022-07-23T11:02:45;99067.38;;;31.29;43.49
5595;BME280;1003;48.002;7.788;2022-07-23T11:05:15;99072.28;;;31.32;44.50
5595;BME280;1003;48.002;7.788;2022-07-23T11:08:15;99068.69;;;31.33;45.40
5595;BME280;1003;48.002;7.788;2022-07-23T11:10:48;99071.66;;;31.02;47.53
5595;BME280;1003;48.002;7.788;2022-07-23T11:13:47;99063.06;;;30.84;47.10
5595;BME280;1003;48.002;7.788;2022-07-23T11:16:25;99065.00;;;31.00;47.77
5595;BME280;1003;48.002;7.788;2022-07-23T11:19:07;99066.16;;;30.88;49.38
5595;BME280;1003;48.002;7.788;2022-07-23T11:21:49;99057.94;;;31.28;47.02
5595;BME280;1003;48.002;7.788;2022-07-23T11:24:22;99065.16;;;31.60;47.46
5595;BME280;1003;48.002;7.788;2022-07-23T11:27:03;99058.50;;;31.83;44.28
5595;BME280;1003;48.002;7.788;2022-07-23T11:29:49;99060.59;;;31.62;44.69
5595;BME280;1003;48.002;7.788;2022-07-23T11:32:34;99060.31;;;31.65;46.74
5595;BME280;1003;48.002;7.788;2022-07-23T11:35:23;99060.53;;;31.98;46.35
5595;BME280;1003;48.002;7.788;2022-07-23T11:37:52;99067.47;;;32.31;44.77
5595;BME280;1003;48.002;7.788;2022-07-23T11:40:25;99061.63;;;31.95;46.07
5595;BME280;1003;48.002;7.788;2022-07-23T11:42:58;99061.56;;;32.13;44.65
5595;BME280;1003;48.002;7.788;2022-07-23T11:45:33;99060.97;;;32.27;44.10
5595;BME280;1003;48.002;7.788;2022-07-23T11:48:01;99058.34;;;32.19;44.17
5595;BME280;1003;48.002;7.788;2022-07-23T11:50:29;99060.56;;;32.48;45.21
5595;BME280;1003;48.002;7.788;2022-07-23T11:52:56;99054.25;;;32.51;44.27
5595;BME280;1003;48.002;7.788;2022-07-23T11:55:24;99062.75;;;32.27;45.16
5595;BME280;1003;48.002;7.788;2022-07-23T11:57:52;99053.94;;;32.20;47.02
5595;BME280;1003;48.002;7.788;2022-07-23T12:00:24;99058.00;;;32.14;45.79
5595;BME280;1003;48.002;7.788;2022-07-23T12:02:55;99048.53;;;31.79;46.19
5595;BME280;1003;48.002;7.788;2022-07-23T12:05:28;99050.09;;;31.46;47.99
5595;BME280;1003;48.002;7.788;2022-07-23T12:07:57;99051.66;;;31.21;46.58
5595;BME280;1003;48.002;7.788;2022-07-23T12:10:27;99054.88;;;30.97;48.78
5595;BME280;1003;48.002;7.788;2022-07-23T12:12:56;99051.78;;;30.75;48.62
5595;BME280;1003;48.002;7.788;2022-07-23T12:15:30;99055.56;;;30.81;49.00
5595;BME280;1003;48.002;7.788;2022-07-23T12:17:59;99054.88;;;30.97;49.03
5595;BME280;1003;48.002;7.788;2022-07-23T12:20:30;99046.44;;;30.95;48.44
5595;BME280;1003;48.002;7.788;2022-07-23T12:23:00;99047.28;;;30.68;48.90
5595;BME280;1003;48.002;7.788;2022-07-23T12:25:30;99036.03;;;30.77;47.97
5595;BME280;1003;48.002;7.788;2022-07-23T12:28:02;99037.09;;;31.02;46.79
5595;BME280;1003;48.002;7.788;2022-07-23T12:30:34;99043.34;;;31.27;47.14
5595;BME280;1003;48.002;7.788;2022-07-23T12:33:05;99038.00;;;31.54;45.87
5595;BME280;1003;48.002;7.788;2022-07-23T12:35:36;99039.06;;;31.26;45.59
5595;BME280;1003;48.002;7.788;2022-07-23T12:38:06;99038.72;;;30.85;47.80
5595;BME280;1003;48.002;7.788;2022-07-23T12:40:37;99023.44;;;31.00;47.21
5595;BME280;1003;48.002;7.788;2022-07-23T12:43:07;99018.47;;;30.71;47.26
5595;BME280;1003;48.002;7.788;2022-07-23T12:45:48;99027.00;;;30.81;45.36
5595;BME280;1003;48.002;7.788;2022-07-23T12:48:23;99027.16;;;30.79;46.38
5595;BME280;1003;48.002;7.788;2022-07-23T12:50:57;99031.28;;;31.08;46.27
5595;BME280;1003;48.002;7.788;2022-07-23T12:53:28;99033.81;;;30.82;46.93
5595;BME280;1003;48.002;7.788;2022-07-23T12:56:04;99034.84;;;31.07;45.12
5595;BME280;1003;48.002;7.788;2022-07-23T12:58:47;99041.09;;;30.96;45.36
5595;BME280;1003;48.002;7.788;2022-07-23T13:01:27;99031.22;;;30.82;46.23
5595;BME280;1003;48.002;7.788;2022-07-23T13:03:58;99036.56;;;30.80;45.72
5595;BME280;1003;48.002;7.788;2022-07-23T13:06:26;99033.75;;;30.74;44.07
5595;BME280;1003;48.002;7.788;2022-07-23T13:08:53;99033.56;;;30.57;46.46
5595;BME280;1003;48.002;7.788;2022-07-23T13:11:20;99029.41;;;30.47;46.59
5595;BME280;1003;48.002;7.788;2022-07-23T13:13:48;99026.56;;;30.13;47.81
5595;BME280;1003;48.002;7.788;2022-07-23T13:16:15;99019.28;;;30.26;47.09
5595;BME280;1003;48.002;7.788;2022-07-23T13:18:44;99020.88;;;30.54;47.46
5595;BME280;1003;48.002;7.788;2022-07-23T13:21:11;99022.03;;;30.70;47.61
5595;BME280;1003;48.002;7.788;2022-07-23T13:23:38;99016.91;;;30.96;46.87
5595;BME280;1003;48.002;7.788;2022-07-23T13:26:05;99018.47;;;31.06;46.66
5595;BME280;1003;48.002;7.788;2022-07-23T13:28:33;99020.09;;;31.25;46.39
5595;BME280;1003;48.002;7.788;2022-07-23T13:31:00;99020.00;;;31.61;45.38